sensor_id;sensor_type;location;lat;lon;timestamp;temperature;humidity
19017;DHT22;9641;51.494;6.670;2024-02-26T00:02:06;6.90;99.90
19017;DHT22;9641;51.494;6.670;2024-02-26T00:04:34;6.80;99.90
19017;DHT22;9641;51.494;6.670;2024-02-26T00:07:01;6.80;99.90
19017;DHT22;9641;51.494;6.670;2024-02-26T00:09:28;6.70;99.90
19017;DHT22;9641;51.494;6.670;2024-02-26T00:11:56;6.60;99.90
19017;DHT22;9641;51.494;6.670;2024-02-26T00:14:23;6.50;99.90
19017;DHT22;9641;51.494;6.670;2024-02-26T00:16:50;6.50;99.90
19017;DHT22;9641;51.494;6.670;2024-02-26T00:19:17;6.40;99.90
19017;DHT22;9641;51.494;6.670;2024-02-26T00:21:45;6.40;99.90
19017;DHT22;9641;51.494;6.670;2024-02-26T00:24:12;6.40;99.90
19017;DHT22;9641;51.494;6.670;2024-02-26T00:26:39;6.40;99.90
19017;DHT22;9641;51.494;6.670;2024-02-26T00:29:06;6.40;99.90
19017;DHT22;9641;51.494;6.670;2024-02-26T00:31:33;6.50;99.90
19017;DHT22;9641;51.494;6.670;2024-02-26T00:34:00;6.50;99.90
19017;DHT22;9641;51.494;6.670;2024-02-26T00:36:27;6.50;99.90
19017;DHT22;9641;51.494;6.670;2024-02-26T00:38:55;6.50;99.90
19017;DHT22;9641;51.494;6.670;2024-02-26T00:41:22;6.50;99.90
19017;DHT22;9641;51.494;6.670;2024-02-26T00:43:49;6.50;99.90
19017;DHT22;9641;51.494;6.670;2024-02-26T00:46:16;6.50;99.90
19017;DHT22;9641;51.494;6.670;2024-02-26T00:48:43;6.50;99.90
19017;DHT22;9641;51.494;6.670;2024-02-26T00:51:10;6.60;99.90
19017;DHT22;9641;51.494;6.670;2024-02-26T00:53:36;6.60;99.90
19017;DHT22;9641;51.494;6.670;2024-02-26T00:56:04;6.60;99.90
19017;DHT22;9641;51.494;6.670;2024-02-26T00:58:31;6.60;99.90
19017;DHT22;9641;51.494;6.670;2024-02-26T01:01:01;6.60;99.90
19017;DHT22;9641;51.494;6.670;2024-02-26T01:03:28;6.50;99.90
19017;DHT22;9641;51.494;6.670;2024-02-26T01:05:55;6.40;99.90
19017;DHT22;9641;51.494;6.670;2024-02-26T01:08:22;6.40;99.90
19017;DHT22;9641;51.494;6.670;2024-02-26T01:10:48;6.40;99.90
19017;DHT22;9641;51.494;6.670;2024-02-26T01:13:20;6.30;99.90
19017;DHT22;9641;51.494;6.670;2024-02-26T01:15:46;6.60;99.90
19017;DHT22;9641;51.494;6.670;2024-02-26T01:18:13;6.80;99.90
19017;DHT22;9641;51.494;6.670;2024-02-26T01:20:40;6.70;99.90
19017;DHT22;9641;51.494;6.670;2024-02-26T01:23:07;6.50;99.90
19017;DHT22;9641;51.494;6.670;2024-02-26T01:25:34;6.50;99.90
19017;DHT22;9641;51.494;6.670;2024-02-26T01:28:00;6.40;99.90
19017;DHT22;9641;51.494;6.670;2024-02-26T01:30:29;6.40;99.90
19017;DHT22;9641;51.494;6.670;2024-02-26T01:32:55;6.50;99.90
19017;DHT22;9641;51.494;6.670;2024-02-26T01:35:22;6.50;99.90
19017;DHT22;9641;51.494;6.670;2024-02-26T01:37:49;6.50;99.90
19017;DHT22;9641;51.494;6.670;2024-02-26T01:40:16;6.50;99.90
19017;DHT22;9641;51.494;6.670;2024-02-26T01:42:45;6.50;99.90
19017;DHT22;9641;51.494;6.670;2024-02-26T01:45:15;6.50;99.90
19017;DHT22;9641;51.494;6.670;2024-02-26T01:47:49;6.60;99.90
19017;DHT22;9641;51.494;6.670;2024-02-26T01:50:17;6.60;99.90
19017;DHT22;9641;51.494;6.670;2024-02-26T01:52:44;6.60;99.90
19017;DHT22;9641;51.494;6.670;2024-02-26T01:55:12;6.70;99.90
19017;DHT22;9641;51.494;6.670;2024-02-26T01:57:40;6.70;99.90
19017;DHT22;9641;51.494;6.670;2024-02-26T02:00:09;6.60;99.90
19017;DHT22;9641;51.494;6.670;2024-02-26T02:02:37;6.60;99.90
19017;DHT22;9641;51.494;6.670;2024-02-26T02:05:09;6.60;99.90
19017;DHT22;9641;51.494;6.670;2024-02-26T02:07:37;6.60;99.90
19017;DHT22;9641;51.494;6.670;2024-02-26T02:10:05;6.60;99.90
19017;DHT22;9641;51.494;6.670;2024-02-26T02:12:32;6.60;99.90
19017;DHT22;9641;51.494;6.670;2024-02-26T02:14:59;6.50;99.90
19017;DHT22;9641;51.494;6.670;2024-02-26T02:17:27;6.40;99.90
19017;DHT22;9641;51.494;6.670;2024-02-26T02:19:54;6.30;99.90
19017;DHT22;9641;51.494;6.670;2024-02-26T02:22:22;6.30;99.90
19017;DHT22;9641;51.494;6.670;2024-02-26T02:24:52;6.30;99.90
19017;DHT22;9641;51.494;6.670;2024-02-26T02:27:21;6.20;99.90
19017;DHT22;9641;51.494;6.670;2024-02-26T02:29:49;6.20;99.90
19017;DHT22;9641;51.494;6.670;2024-02-26T02:32:16;6.20;99.90
19017;DHT22;9641;51.494;6.670;2024-02-26T02:34:44;6.20;99.90
19017;DHT22;9641;51.494;6.670;2024-02-26T02:37:11;6.20;99.90
19017;DHT22;9641;51.494;6.670;2024-02-26T02:39:39;6.10;99.90
19017;DHT22;9641;51.494;6.670;2024-02-26T02:42:08;6.10;99.90
19017;DHT22;9641;51.494;6.670;2024-02-26T02:44:35;6.10;99.90
19017;DHT22;9641;51.494;6.670;2024-02-26T02:47:02;6.10;99.90
19017;DHT22;9641;51.494;6.670;2024-02-26T02:49:29;6.10;99.90
19017;DHT22;9641;51.494;6.670;2024-02-26T02:51:56;6.10;99.90
19017;DHT22;9641;51.494;6.670;2024-02-26T02:54:23;6.00;99.90
19017;DHT22;9641;51.494;6.670;2024-02-26T02:56:51;6.10;99.90
19017;DHT22;9641;51.494;6.670;2024-02-26T02:59:18;6.10;99.90
19017;DHT22;9641;51.494;6.670;2024-02-26T03:01:45;6.00;99.90
19017;DHT22;9641;51.494;6.670;2024-02-26T03:04:12;6.00;99.90
19017;DHT22;9641;51.494;6.670;2024-02-26T03:06:38;6.00;99.90
19017;DHT22;9641;51.494;6.670;2024-02-26T03:09:05;6.00;99.90
19017;DHT22;9641;51.494;6.670;2024-02-26T03:11:32;6.00;99.90
19017;DHT22;9641;51.494;6.670;2024-02-26T03:14:00;6.00;99.90
19017;DHT22;9641;51.494;6.670;2024-02-26T03:16:27;6.00;99.90
19017;DHT22;9641;51.494;6.670;2024-02-26T03:18:54;6.00;99.90
19017;DHT22;9641;51.494;6.670;2024-02-26T03:21:21;6.00;99.90
19017;DHT22;9641;51.494;6.670;2024-02-26T03:23:48;6.00;99.90
19017;DHT22;9641;51.494;6.670;2024-02-26T03:26:14;6.00;99.90
19017;DHT22;9641;51.494;6.670;2024-02-26T03:28:41;5.90;99.90
19017;DHT22;9641;51.494;6.670;2024-02-26T03:31:10;5.90;99.90
19017;DHT22;9641;51.494;6.670;2024-02-26T03:33:37;5.90;99.90
19017;DHT22;9641;51.494;6.670;2024-02-26T03:36:05;5.90;99.90
19017;DHT22;9641;51.494;6.670;2024-02-26T03:38:33;5.90;99.90
19017;DHT22;9641;51.494;6.670;2024-02-26T03:40:59;5.90;99.90
19017;DHT22;9641;51.494;6.670;2024-02-26T03:43:26;5.80;99.90
19017;DHT22;9641;51.494;6.670;2024-02-26T03:45:53;5.80;99.90
19017;DHT22;9641;51.494;6.670;2024-02-26T03:48:21;5.80;99.90
19017;DHT22;9641;51.494;6.670;2024-02-26T03:50:48;5.80;99.90
19017;DHT22;9641;51.494;6.670;2024-02-26T03:53:15;5.70;99.90
19017;DHT22;9641;51.494;6.670;2024-02-26T03:55:42;5.70;99.90
19017;DHT22;9641;51.494;6.670;2024-02-26T03:58:08;5.60;99.90
19017;DHT22;9641;51.494;6.670;2024-02-26T04:00:36;5.60;99.90
19017;DHT22;9641;51.494;6.670;2024-02-26T04:03:03;5.60;99.90
19017;DHT22;9641;51.494;6.670;2024-02-26T04:05:31;5.60;99.90
19017;DHT22;9641;51.494;6.670;2024-02-26T04:07:58;5.60;99.90
19017;DHT22;9641;51.494;6.670;2024-02-26T04:10:25;5.50;99.90
19017;DHT22;9641;51.494;6.670;2024-02-26T04:12:52;5.50;99.90
19017;DHT22;9641;51.494;6.670;2024-02-26T04:15:19;5.50;99.90
19017;DHT22;9641;51.494;6.670;2024-02-26T04:17:45;5.60;99.90
19017;DHT22;9641;51.494;6.670;2024-02-26T04:20:14;5.60;99.90
19017;DHT22;9641;51.494;6.670;2024-02-26T04:22:43;5.60;99.90
19017;DHT22;9641;51.494;6.670;2024-02-26T04:25:11;5.50;99.90
19017;DHT22;9641;51.494;6.670;2024-02-26T04:27:38;5.50;99.90
19017;DHT22;9641;51.494;6.670;2024-02-26T04:30:05;5.50;99.90
19017;DHT22;9641;51.494;6.670;2024-02-26T04:32:32;5.50;99.90
19017;DHT22;9641;51.494;6.670;2024-02-26T04:35:00;5.50;99.90
19017;DHT22;9641;51.494;6.670;2024-02-26T04:37:27;5.40;99.90
19017;DHT22;9641;51.494;6.670;2024-02-26T04:40:01;5.40;99.90
19017;DHT22;9641;51.494;6.670;2024-02-26T04:42:28;5.40;99.90
19017;DHT22;9641;51.494;6.670;2024-02-26T04:44:55;5.30;99.90
19017;DHT22;9641;51.494;6.670;2024-02-26T04:47:22;5.30;99.90
19017;DHT22;9641;51.494;6.670;2024-02-26T04:49:49;5.30;99.90
19017;DHT22;9641;51.494;6.670;2024-02-26T04:52:16;5.30;99.90
19017;DHT22;9641;51.494;6.670;2024-02-26T04:54:43;5.30;99.90
19017;DHT22;9641;51.494;6.670;2024-02-26T04:57:11;5.30;99.90
19017;DHT22;9641;51.494;6.670;2024-02-26T04:59:37;5.20;99.90
19017;DHT22;9641;51.494;6.670;2024-02-26T05:02:06;5.30;99.90
19017;DHT22;9641;51.494;6.670;2024-02-26T05:04:32;5.20;99.90
19017;DHT22;9641;51.494;6.670;2024-02-26T05:06:59;5.20;99.90
19017;DHT22;9641;51.494;6.670;2024-02-26T05:09:26;5.20;99.90
19017;DHT22;9641;51.494;6.670;2024-02-26T05:11:53;5.20;99.90
19017;DHT22;9641;51.494;6.670;2024-02-26T05:14:21;5.10;99.90
19017;DHT22;9641;51.494;6.670;2024-02-26T05:16:48;5.10;99.90
19017;DHT22;9641;51.494;6.670;2024-02-26T05:19:14;5.10;99.90
19017;DHT22;9641;51.494;6.670;2024-02-26T05:21:41;5.10;99.90
19017;DHT22;9641;51.494;6.670;2024-02-26T05:24:09;5.00;99.90
19017;DHT22;9641;51.494;6.670;2024-02-26T05:26:36;5.00;99.90
19017;DHT22;9641;51.494;6.670;2024-02-26T05:29:03;5.00;99.90
19017;DHT22;9641;51.494;6.670;2024-02-26T05:31:31;5.00;99.90
19017;DHT22;9641;51.494;6.670;2024-02-26T05:33:58;5.00;99.90
19017;DHT22;9641;51.494;6.670;2024-02-26T05:36:25;5.00;99.90
19017;DHT22;9641;51.494;6.670;2024-02-26T05:38:54;5.00;99.90
19017;DHT22;9641;51.494;6.670;2024-02-26T05:41:21;4.90;99.90
19017;DHT22;9641;51.494;6.670;2024-02-26T05:43:50;4.90;99.90
19017;DHT22;9641;51.494;6.670;2024-02-26T05:46:18;5.00;99.90
19017;DHT22;9641;51.494;6.670;2024-02-26T05:48:47;5.00;99.90
19017;DHT22;9641;51.494;6.670;2024-02-26T05:51:15;4.90;99.90
19017;DHT22;9641;51.494;6.670;2024-02-26T05:53:41;4.90;99.90
19017;DHT22;9641;51.494;6.670;2024-02-26T05:56:08;4.90;99.90
19017;DHT22;9641;51.494;6.670;2024-02-26T05:58:35;4.90;99.90
19017;DHT22;9641;51.494;6.670;2024-02-26T06:01:02;4.90;99.90
19017;DHT22;9641;51.494;6.670;2024-02-26T06:03:29;4.90;99.90
19017;DHT22;9641;51.494;6.670;2024-02-26T06:05:57;4.90;99.90
19017;DHT22;9641;51.494;6.670;2024-02-26T06:08:24;4.90;99.90
19017;DHT22;9641;51.494;6.670;2024-02-26T06:10:51;4.90;99.90
19017;DHT22;9641;51.494;6.670;2024-02-26T06:13:18;4.90;99.90
19017;DHT22;9641;51.494;6.670;2024-02-26T06:15:44;4.90;99.90
19017;DHT22;9641;51.494;6.670;2024-02-26T06:18:11;4.90;99.90
19017;DHT22;9641;51.494;6.670;2024-02-26T06:20:38;4.90;99.90
19017;DHT22;9641;51.494;6.670;2024-02-26T06:23:07;4.90;99.90
19017;DHT22;9641;51.494;6.670;2024-02-26T06:25:34;4.90;99.90
19017;DHT22;9641;51.494;6.670;2024-02-26T06:28:01;4.90;99.90
19017;DHT22;9641;51.494;6.670;2024-02-26T06:30:28;5.00;99.90
19017;DHT22;9641;51.494;6.670;2024-02-26T06:32:57;5.00;99.90
19017;DHT22;9641;51.494;6.670;2024-02-26T06:35:24;5.00;99.90
19017;DHT22;9641;51.494;6.670;2024-02-26T06:37:51;5.00;99.90
19017;DHT22;9641;51.494;6.670;2024-02-26T06:40:19;5.00;99.90
19017;DHT22;9641;51.494;6.670;2024-02-26T06:42:46;5.00;99.90
19017;DHT22;9641;51.494;6.670;2024-02-26T06:45:13;5.00;99.90
19017;DHT22;9641;51.494;6.670;2024-02-26T06:47:40;5.00;99.90
19017;DHT22;9641;51.494;6.670;2024-02-26T06:50:09;5.00;99.90
19017;DHT22;9641;51.494;6.670;2024-02-26T06:52:35;5.10;99.90
19017;DHT22;9641;51.494;6.670;2024-02-26T06:55:02;5.10;99.90
19017;DHT22;9641;51.494;6.670;2024-02-26T06:57:32;5.10;99.90
19017;DHT22;9641;51.494;6.670;2024-02-26T06:59:58;5.10;99.90
19017;DHT22;9641;51.494;6.670;2024-02-26T07:02:25;5.10;99.90
19017;DHT22;9641;51.494;6.670;2024-02-26T07:04:52;5.10;99.90
19017;DHT22;9641;51.494;6.670;2024-02-26T07:07:19;5.10;99.90
19017;DHT22;9641;51.494;6.670;2024-02-26T07:09:48;5.10;99.90
19017;DHT22;9641;51.494;6.670;2024-02-26T07:12:14;5.20;99.90
19017;DHT22;9641;51.494;6.670;2024-02-26T07:14:43;5.20;99.90
19017;DHT22;9641;51.494;6.670;2024-02-26T07:17:11;5.20;99.90
19017;DHT22;9641;51.494;6.670;2024-02-26T07:19:38;5.20;99.90
19017;DHT22;9641;51.494;6.670;2024-02-26T07:22:05;5.20;99.90
19017;DHT22;9641;51.494;6.670;2024-02-26T07:24:31;5.20;99.90
19017;DHT22;9641;51.494;6.670;2024-02-26T07:26:58;5.20;99.90
19017;DHT22;9641;51.494;6.670;2024-02-26T07:29:25;5.20;99.90
19017;DHT22;9641;51.494;6.670;2024-02-26T07:31:53;5.20;99.90
19017;DHT22;9641;51.494;6.670;2024-02-26T07:34:20;5.20;99.90
19017;DHT22;9641;51.494;6.670;2024-02-26T07:36:52;5.20;99.90
19017;DHT22;9641;51.494;6.670;2024-02-26T07:39:19;5.20;99.90
19017;DHT22;9641;51.494;6.670;2024-02-26T07:41:46;5.20;99.90
19017;DHT22;9641;51.494;6.670;2024-02-26T07:44:15;5.20;99.90
19017;DHT22;9641;51.494;6.670;2024-02-26T07:46:42;5.20;99.90
19017;DHT22;9641;51.494;6.670;2024-02-26T07:49:10;5.20;99.90
19017;DHT22;9641;51.494;6.670;2024-02-26T07:51:37;5.20;99.90
19017;DHT22;9641;51.494;6.670;2024-02-26T07:54:03;5.20;99.90
19017;DHT22;9641;51.494;6.670;2024-02-26T07:56:30;5.20;99.90
19017;DHT22;9641;51.494;6.670;2024-02-26T07:58:57;5.20;99.90
19017;DHT22;9641;51.494;6.670;2024-02-26T08:01:24;5.20;99.90
19017;DHT22;9641;51.494;6.670;2024-02-26T08:03:52;5.20;99.90
19017;DHT22;9641;51.494;6.670;2024-02-26T08:06:20;5.20;99.90
19017;DHT22;9641;51.494;6.670;2024-02-26T08:08:46;5.20;99.90
19017;DHT22;9641;51.494;6.670;2024-02-26T08:11:14;5.20;99.90
19017;DHT22;9641;51.494;6.670;2024-02-26T08:13:41;5.20;99.90
19017;DHT22;9641;51.494;6.670;2024-02-26T08:16:08;5.20;99.90
19017;DHT22;9641;51.494;6.670;2024-02-26T08:18:35;5.20;99.90
19017;DHT22;9641;51.494;6.670;2024-02-26T08:21:02;5.20;99.90
19017;DHT22;9641;51.494;6.670;2024-02-26T08:23:30;5.20;99.90
19017;DHT22;9641;51.494;6.670;2024-02-26T08:25:57;5.20;99.90
19017;DHT22;9641;51.494;6.670;2024-02-26T08:28:24;5.20;99.90
19017;DHT22;9641;51.494;6.670;2024-02-26T08:30:51;5.20;99.90
19017;DHT22;9641;51.494;6.670;2024-02-26T08:33:18;5.20;99.90
19017;DHT22;9641;51.494;6.670;2024-02-26T08:35:44;5.30;99.90
19017;DHT22;9641;51.494;6.670;2024-02-26T08:38:11;5.30;99.90
19017;DHT22;9641;51.494;6.670;2024-02-26T08:40:40;5.30;99.90
19017;DHT22;9641;51.494;6.670;2024-02-26T08:43:06;5.20;99.90
19017;DHT22;9641;51.494;6.670;2024-02-26T08:45:34;5.30;99.90
19017;DHT22;9641;51.494;6.670;2024-02-26T08:48:00;5.30;99.90
19017;DHT22;9641;51.494;6.670;2024-02-26T08:50:27;5.30;99.90
19017;DHT22;9641;51.494;6.670;2024-02-26T08:52:54;5.40;99.90
19017;DHT22;9641;51.494;6.670;2024-02-26T08:55:21;5.50;99.90
19017;DHT22;9641;51.494;6.670;2024-02-26T08:57:49;5.50;99.90
19017;DHT22;9641;51.494;6.670;2024-02-26T09:00:16;5.60;99.90
19017;DHT22;9641;51.494;6.670;2024-02-26T09:02:45;5.60;99.90
19017;DHT22;9641;51.494;6.670;2024-02-26T09:05:12;5.60;99.90
19017;DHT22;9641;51.494;6.670;2024-02-26T09:07:39;5.60;99.90
19017;DHT22;9641;51.494;6.670;2024-02-26T09:10:07;5.60;99.90
19017;DHT22;9641;51.494;6.670;2024-02-26T09:12:36;5.60;99.90
19017;DHT22;9641;51.494;6.670;2024-02-26T09:15:06;5.70;99.90
19017;DHT22;9641;51.494;6.670;2024-02-26T09:17:33;5.70;99.90
19017;DHT22;9641;51.494;6.670;2024-02-26T09:19:59;5.70;99.90
19017;DHT22;9641;51.494;6.670;2024-02-26T09:22:26;5.60;99.90
19017;DHT22;9641;51.494;6.670;2024-02-26T09:24:53;5.60;99.90
19017;DHT22;9641;51.494;6.670;2024-02-26T09:27:20;5.60;99.90
19017;DHT22;9641;51.494;6.670;2024-02-26T09:29:47;5.60;99.90
19017;DHT22;9641;51.494;6.670;2024-02-26T09:32:16;5.60;99.90
19017;DHT22;9641;51.494;6.670;2024-02-26T09:34:43;5.60;99.90
19017;DHT22;9641;51.494;6.670;2024-02-26T09:37:10;5.60;99.90
19017;DHT22;9641;51.494;6.670;2024-02-26T09:39:38;5.60;99.90
19017;DHT22;9641;51.494;6.670;2024-02-26T09:42:05;5.60;99.90
19017;DHT22;9641;51.494;6.670;2024-02-26T09:44:36;5.60;99.90
19017;DHT22;9641;51.494;6.670;2024-02-26T09:47:08;5.50;99.90
19017;DHT22;9641;51.494;6.670;2024-02-26T09:49:37;5.40;99.90
19017;DHT22;9641;51.494;6.670;2024-02-26T09:52:05;5.50;99.90
19017;DHT22;9641;51.494;6.670;2024-02-26T09:54:33;5.50;99.90
19017;DHT22;9641;51.494;6.670;2024-02-26T09:57:02;5.50;99.90
19017;DHT22;9641;51.494;6.670;2024-02-26T09:59:35;5.50;99.90
19017;DHT22;9641;51.494;6.670;2024-02-26T10:02:04;5.40;99.90
19017;DHT22;9641;51.494;6.670;2024-02-26T10:04:34;5.50;99.90
19017;DHT22;9641;51.494;6.670;2024-02-26T10:07:03;5.50;99.90
19017;DHT22;9641;51.494;6.670;2024-02-26T10:09:31;5.50;99.90
19017;DHT22;9641;51.494;6.670;2024-02-26T10:11:58;5.40;99.90
19017;DHT22;9641;51.494;6.670;2024-02-26T10:14:26;5.40;99.90
19017;DHT22;9641;51.494;6.670;2024-02-26T10:16:52;5.50;99.90
19017;DHT22;9641;51.494;6.670;2024-02-26T10:19:26;5.50;99.90
19017;DHT22;9641;51.494;6.670;2024-02-26T10:21:56;5.50;99.90
19017;DHT22;9641;51.494;6.670;2024-02-26T10:24:25;5.50;99.90
19017;DHT22;9641;51.494;6.670;2024-02-26T10:26:52;5.50;99.90
19017;DHT22;9641;51.494;6.670;2024-02-26T10:29:19;5.50;99.90
19017;DHT22;9641;51.494;6.670;2024-02-26T10:31:46;5.50;99.90
19017;DHT22;9641;51.494;6.670;2024-02-26T10:34:14;5.50;99.90
19017;DHT22;9641;51.494;6.670;2024-02-26T10:36:41;5.60;99.90
19017;DHT22;9641;51.494;6.670;2024-02-26T10:39:09;5.50;99.90
19017;DHT22;9641;51.494;6.670;2024-02-26T10:41:39;5.60;99.90
19017;DHT22;9641;51.494;6.670;2024-02-26T10:44:08;5.60;99.90
19017;DHT22;9641;51.494;6.670;2024-02-26T10:46:36;5.60;99.90
19017;DHT22;9641;51.494;6.670;2024-02-26T10:49:04;5.70;99.90
19017;DHT22;9641;51.494;6.670;2024-02-26T10:51:32;5.60;99.90
19017;DHT22;9641;51.494;6.670;2024-02-26T10:54:01;5.70;99.90
19017;DHT22;9641;51.494;6.670;2024-02-26T10:56:34;5.70;99.90
19017;DHT22;9641;51.494;6.670;2024-02-26T10:59:02;5.80;99.90
19017;DHT22;9641;51.494;6.670;2024-02-26T11:01:30;5.80;99.90
19017;DHT22;9641;51.494;6.670;2024-02-26T11:03:57;5.90;99.90
19017;DHT22;9641;51.494;6.670;2024-02-26T11:06:27;5.90;99.90
19017;DHT22;9641;51.494;6.670;2024-02-26T11:08:55;6.00;99.90
19017;DHT22;9641;51.494;6.670;2024-02-26T11:11:22;6.10;99.90
19017;DHT22;9641;51.494;6.670;2024-02-26T11:13:51;6.10;99.90
19017;DHT22;9641;51.494;6.670;2024-02-26T11:16:21;6.20;99.90
19017;DHT22;9641;51.494;6.670;2024-02-26T11:18:48;6.20;99.90
19017;DHT22;9641;51.494;6.670;2024-02-26T11:21:16;6.20;99.90
19017;DHT22;9641;51.494;6.670;2024-02-26T11:23:44;6.30;99.90
19017;DHT22;9641;51.494;6.670;2024-02-26T11:26:12;6.40;99.90
19017;DHT22;9641;51.494;6.670;2024-02-26T11:28:39;6.40;99.90
19017;DHT22;9641;51.494;6.670;2024-02-26T11:31:07;6.40;99.90
19017;DHT22;9641;51.494;6.670;2024-02-26T11:33:36;6.50;99.90
19017;DHT22;9641;51.494;6.670;2024-02-26T11:36:08;6.60;99.90
19017;DHT22;9641;51.494;6.670;2024-02-26T11:38:35;6.70;99.90
19017;DHT22;9641;51.494;6.670;2024-02-26T11:41:03;6.80;99.90
19017;DHT22;9641;51.494;6.670;2024-02-26T11:43:49;6.70;99.90
19017;DHT22;9641;51.494;6.670;2024-02-26T11:46:25;6.60;99.90
19017;DHT22;9641;51.494;6.670;2024-02-26T11:48:54;6.50;99.90
19017;DHT22;9641;51.494;6.670;2024-02-26T11:51:25;6.50;99.90
19017;DHT22;9641;51.494;6.670;2024-02-26T11:53:53;6.40;99.90
19017;DHT22;9641;51.494;6.670;2024-02-26T11:56:23;6.50;99.90
19017;DHT22;9641;51.494;6.670;2024-02-26T11:58:56;6.40;99.90
19017;DHT22;9641;51.494;6.670;2024-02-26T12:01:40;6.40;99.90
19017;DHT22;9641;51.494;6.670;2024-02-26T12:04:12;6.30;99.90
19017;DHT22;9641;51.494;6.670;2024-02-26T12:06:48;6.30;99.90
19017;DHT22;9641;51.494;6.670;2024-02-26T12:09:36;6.40;99.90
19017;DHT22;9641;51.494;6.670;2024-02-26T12:12:04;6.40;99.90
19017;DHT22;9641;51.494;6.670;2024-02-26T12:14:33;6.50;99.90
19017;DHT22;9641;51.494;6.670;2024-02-26T12:17:01;6.60;99.90
19017;DHT22;9641;51.494;6.670;2024-02-26T12:19:30;6.60;99.90
19017;DHT22;9641;51.494;6.670;2024-02-26T12:21:58;6.50;99.90
19017;DHT22;9641;51.494;6.670;2024-02-26T12:24:24;6.60;99.90
19017;DHT22;9641;51.494;6.670;2024-02-26T12:26:51;6.70;99.90
19017;DHT22;9641;51.494;6.670;2024-02-26T12:29:18;6.60;99.90
19017;DHT22;9641;51.494;6.670;2024-02-26T12:31:45;6.70;99.90
19017;DHT22;9641;51.494;6.670;2024-02-26T12:34:12;6.70;99.90
19017;DHT22;9641;51.494;6.670;2024-02-26T12:36:40;6.70;99.90
19017;DHT22;9641;51.494;6.670;2024-02-26T12:39:07;6.70;99.90
19017;DHT22;9641;51.494;6.670;2024-02-26T12:41:35;6.80;99.90
19017;DHT22;9641;51.494;6.670;2024-02-26T12:44:02;6.80;99.90
19017;DHT22;9641;51.494;6.670;2024-02-26T12:46:29;6.80;99.90
19017;DHT22;9641;51.494;6.670;2024-02-26T12:48:56;6.70;99.90
19017;DHT22;9641;51.494;6.670;2024-02-26T12:51:25;6.80;99.90
19017;DHT22;9641;51.494;6.670;2024-02-26T12:53:54;6.80;99.90
19017;DHT22;9641;51.494;6.670;2024-02-26T12:56:23;6.90;99.90
19017;DHT22;9641;51.494;6.670;2024-02-26T12:58:53;7.00;99.90
19017;DHT22;9641;51.494;6.670;2024-02-26T13:01:25;7.00;99.90
19017;DHT22;9641;51.494;6.670;2024-02-26T13:03:55;7.00;99.90
19017;DHT22;9641;51.494;6.670;2024-02-26T13:06:22;7.10;99.90
19017;DHT22;9641;51.494;6.670;2024-02-26T13:08:49;7.10;99.90
19017;DHT22;9641;51.494;6.670;2024-02-26T13:11:18;7.10;99.90
19017;DHT22;9641;51.494;6.670;2024-02-26T13:13:48;7.00;99.90
19017;DHT22;9641;51.494;6.670;2024-02-26T13:16:16;7.10;99.90
19017;DHT22;9641;51.494;6.670;2024-02-26T13:18:43;7.10;99.90
19017;DHT22;9641;51.494;6.670;2024-02-26T13:21:11;7.20;99.90
19017;DHT22;9641;51.494;6.670;2024-02-26T13:23:39;7.20;99.90
19017;DHT22;9641;51.494;6.670;2024-02-26T13:26:11;7.30;99.90
19017;DHT22;9641;51.494;6.670;2024-02-26T13:28:42;7.30;99.90
19017;DHT22;9641;51.494;6.670;2024-02-26T13:31:10;7.10;99.90
19017;DHT22;9641;51.494;6.670;2024-02-26T13:33:37;7.10;99.90
19017;DHT22;9641;51.494;6.670;2024-02-26T13:36:05;7.10;99.90
19017;DHT22;9641;51.494;6.670;2024-02-26T13:38:32;7.10;99.90
19017;DHT22;9641;51.494;6.670;2024-02-26T13:40:59;7.10;99.90
19017;DHT22;9641;51.494;6.670;2024-02-26T13:43:26;7.00;99.90
19017;DHT22;9641;51.494;6.670;2024-02-26T13:45:54;7.10;99.90
19017;DHT22;9641;51.494;6.670;2024-02-26T13:48:21;7.10;99.90
19017;DHT22;9641;51.494;6.670;2024-02-26T13:50:49;7.10;99.90
19017;DHT22;9641;51.494;6.670;2024-02-26T13:53:16;7.10;99.90
19017;DHT22;9641;51.494;6.670;2024-02-26T13:55:43;7.10;99.90
19017;DHT22;9641;51.494;6.670;2024-02-26T13:58:12;7.10;99.90
19017;DHT22;9641;51.494;6.670;2024-02-26T14:00:41;7.10;99.90
19017;DHT22;9641;51.494;6.670;2024-02-26T14:03:09;7.10;99.90
19017;DHT22;9641;51.494;6.670;2024-02-26T14:05:39;7.10;99.90
19017;DHT22;9641;51.494;6.670;2024-02-26T14:08:06;7.10;99.90
19017;DHT22;9641;51.494;6.670;2024-02-26T14:10:34;7.00;99.90
19017;DHT22;9641;51.494;6.670;2024-02-26T14:13:01;7.00;99.90
19017;DHT22;9641;51.494;6.670;2024-02-26T14:15:29;7.10;99.90
19017;DHT22;9641;51.494;6.670;2024-02-26T14:17:56;7.10;99.90
19017;DHT22;9641;51.494;6.670;2024-02-26T14:20:25;7.10;99.90
19017;DHT22;9641;51.494;6.670;2024-02-26T14:22:52;7.00;99.90
19017;DHT22;9641;51.494;6.670;2024-02-26T14:25:20;7.00;99.90
19017;DHT22;9641;51.494;6.670;2024-02-26T14:27:47;7.00;99.90
19017;DHT22;9641;51.494;6.670;2024-02-26T14:30:15;7.00;99.90
19017;DHT22;9641;51.494;6.670;2024-02-26T14:32:42;7.00;99.90
19017;DHT22;9641;51.494;6.670;2024-02-26T14:35:09;7.00;99.90
19017;DHT22;9641;51.494;6.670;2024-02-26T14:37:37;6.90;99.90
19017;DHT22;9641;51.494;6.670;2024-02-26T14:40:12;6.90;99.90
19017;DHT22;9641;51.494;6.670;2024-02-26T14:43:00;6.90;99.90
19017;DHT22;9641;51.494;6.670;2024-02-26T14:46:09;6.90;99.90
19017;DHT22;9641;51.494;6.670;2024-02-26T14:48:36;6.90;99.90
19017;DHT22;9641;51.494;6.670;2024-02-26T14:51:06;6.90;99.90
19017;DHT22;9641;51.494;6.670;2024-02-26T14:53:37;6.90;99.90
19017;DHT22;9641;51.494;6.670;2024-02-26T14:56:04;6.90;99.90
19017;DHT22;9641;51.494;6.670;2024-02-26T14:59:06;6.80;99.90
19017;DHT22;9641;51.494;6.670;2024-02-26T15:01:33;6.80;99.90
19017;DHT22;9641;51.494;6.670;2024-02-26T15:04:07;6.80;99.90
19017;DHT22;9641;51.494;6.670;2024-02-26T15:10:08;6.80;99.90
19017;DHT22;9641;51.494;6.670;2024-02-26T15:12:38;6.80;99.90
19017;DHT22;9641;51.494;6.670;2024-02-26T15:15:36;6.80;99.90
19017;DHT22;9641;51.494;6.670;2024-02-26T15:19:18;6.80;99.90
19017;DHT22;9641;51.494;6.670;2024-02-26T15:22:38;6.80;99.90
19017;DHT22;9641;51.494;6.670;2024-02-26T15:32:50;6.70;99.90
19017;DHT22;9641;51.494;6.670;2024-02-26T15:35:18;6.80;99.90
19017;DHT22;9641;51.494;6.670;2024-02-26T15:37:49;6.70;99.90
19017;DHT22;9641;51.494;6.670;2024-02-26T15:40:19;6.70;99.90
19017;DHT22;9641;51.494;6.670;2024-02-26T15:43:07;6.70;99.90
19017;DHT22;9641;51.494;6.670;2024-02-26T15:45:42;6.60;99.90
19017;DHT22;9641;51.494;6.670;2024-02-26T15:48:19;6.60;99.90
19017;DHT22;9641;51.494;6.670;2024-02-26T15:50:57;6.60;99.90
19017;DHT22;9641;51.494;6.670;2024-02-26T15:53:49;6.50;99.90
19017;DHT22;9641;51.494;6.670;2024-02-26T15:56:21;6.60;99.90
19017;DHT22;9641;51.494;6.670;2024-02-26T15:58:59;6.50;99.90
19017;DHT22;9641;51.494;6.670;2024-02-26T16:01:38;6.50;99.90
19017;DHT22;9641;51.494;6.670;2024-02-26T16:04:17;6.50;99.90
19017;DHT22;9641;51.494;6.670;2024-02-26T16:06:52;6.40;99.90
19017;DHT22;9641;51.494;6.670;2024-02-26T16:09:26;6.50;99.90
19017;DHT22;9641;51.494;6.670;2024-02-26T16:11:57;6.50;99.90
19017;DHT22;9641;51.494;6.670;2024-02-26T16:14:37;6.50;99.90
19017;DHT22;9641;51.494;6.670;2024-02-26T16:17:24;6.50;99.90
19017;DHT22;9641;51.494;6.670;2024-02-26T16:23:46;6.50;99.90
19017;DHT22;9641;51.494;6.670;2024-02-26T16:26:25;6.40;99.90
19017;DHT22;9641;51.494;6.670;2024-02-26T16:29:23;6.50;99.90